Time;durP1;ratioP1;P1;durP2;ratioP2;P2;SDS_P1;SDS_P2;PMS_P1;PMS_P2;Temp;Humidity;BMP_temperature;BMP_pressure;BME280_temperature;BME280_humidity;BME280_pressure;Samples;Min_cycle;Max_cycle;Signal;HPM_P1;HPM_P2
2021/06/20 00:01:21;;;;;;;4.32;3.70;;;;;;;26.24;48.71;100931.53;144993;565;6002;-83
2021/06/20 00:03:48;;;;;;;5.20;3.70;;;;;;;26.27;48.56;100942.09;144992;582;6002;-82
2021/06/20 00:06:36;;;;;;;4.55;3.67;;;;;;;26.30;48.04;100936.66;144992;589;6002;-82
2021/06/20 00:09:11;;;;;;;4.00;3.60;;;;;;;26.30;48.11;100938.47;144992;583;6000;-82
2021/06/20 00:11:40;;;;;;;3.20;2.90;;;;;;;26.28;48.38;100933.19;144992;853;6000;-82
2021/06/20 00:14:07;;;;;;;4.68;3.58;;;;;;;26.28;47.81;100926.97;144992;565;6000;-82
2021/06/20 00:16:35;;;;;;;4.18;3.78;;;;;;;26.25;48.27;100941.28;144992;601;6000;-81
2021/06/20 00:19:03;;;;;;;4.82;3.50;;;;;;;26.22;48.62;100938.72;144993;561;6000;-83
2021/06/20 00:21:30;;;;;;;8.43;3.78;;;;;;;26.18;48.13;100940.56;144993;802;6002;-82
2021/06/20 00:23:57;;;;;;;3.90;3.17;;;;;;;26.21;48.43;100943.13;144993;574;6002;-81
2021/06/20 00:26:24;;;;;;;4.28;3.20;;;;;;;26.24;48.43;100947.50;144993;569;6002;-82
2021/06/20 00:28:50;;;;;;;5.07;3.62;;;;;;;26.20;48.67;100935.19;144993;600;6002;-84
2021/06/20 00:31:18;;;;;;;4.55;3.00;;;;;;;26.22;48.08;100930.72;144993;573;6002;-83
2021/06/20 00:33:44;;;;;;;4.03;3.33;;;;;;;26.24;48.60;100927.06;144993;597;6002;-82
2021/06/20 00:36:11;;;;;;;4.72;3.92;;;;;;;26.27;48.30;100936.75;144993;620;6002;-83
2021/06/20 00:38:38;;;;;;;6.20;3.90;;;;;;;26.23;48.31;100940.44;144993;570;6002;-82
2021/06/20 00:41:05;;;;;;;4.05;3.65;;;;;;;26.27;48.52;100934.09;144993;581;6002;-83
2021/06/20 00:43:32;;;;;;;4.32;4.00;;;;;;;26.34;48.82;100927.66;144993;617;6002;-82
2021/06/20 00:45:58;;;;;;;4.55;3.85;;;;;;;26.38;48.51;100923.12;144993;622;6002;-82
2021/06/20 00:48:25;;;;;;;6.22;3.80;;;;;;;26.42;48.46;100930.06;144993;581;6002;-82
2021/06/20 00:50:51;;;;;;;4.18;3.72;;;;;;;26.42;48.06;100928.28;144993;701;6002;-82
2021/06/20 00:53:20;;;;;;;4.00;3.60;;;;;;;26.41;48.05;100931.00;144993;571;6002;-82
2021/06/20 00:55:50;;;;;;;4.10;3.70;;;;;;;26.41;48.38;100923.00;144993;595;6002;-82
2021/06/20 00:58:20;;;;;;;4.50;4.10;;;;;;;26.40;48.13;100916.81;144993;690;6002;-81
2021/06/20 01:00:48;;;;;;;3.85;3.55;;;;;;;26.41;48.36;100913.22;144993;574;6002;-82
2021/06/20 01:03:15;;;;;;;4.80;3.90;;;;;;;26.41;48.45;100915.88;144993;570;6002;-82
2021/06/20 01:05:43;;;;;;;4.57;4.18;;;;;;;26.42;48.46;100924.75;144993;774;6002;-82
2021/06/20 01:08:10;;;;;;;5.22;4.32;;;;;;;26.39;48.53;100923.06;144993;912;6002;-83
2021/06/20 01:10:38;;;;;;;5.65;4.10;;;;;;;26.34;48.16;100922.31;144994;589;5002;-81
2021/06/20 01:13:08;;;;;;;4.95;4.37;;;;;;;26.29;48.71;100913.62;144994;563;5002;-82
2021/06/20 01:15:36;;;;;;;4.95;4.03;;;;;;;26.23;48.75;100924.47;144994;571;5002;-84
2021/06/20 01:18:03;;;;;;;7.53;3.92;;;;;;;26.13;48.41;100917.72;144993;912;5002;-82
2021/06/20 01:20:30;;;;;;;4.72;3.55;;;;;;;26.08;48.74;100911.69;144994;888;5002;-81
2021/06/20 01:22:58;;;;;;;5.87;3.90;;;;;;;26.11;49.11;100909.78;144994;654;5002;-82
2021/06/20 01:25:28;;;;;;;4.47;3.58;;;;;;;26.17;48.52;100906.03;144994;912;5002;-82
2021/06/20 01:27:58;;;;;;;5.37;3.80;;;;;;;26.19;48.59;100913.06;144994;730;5002;-82
2021/06/20 01:30:28;;;;;;;4.87;4.03;;;;;;;26.18;49.15;100902.47;144994;630;5002;-83
2021/06/20 01:32:57;;;;;;;7.62;4.00;;;;;;;26.09;49.10;100906.31;144994;582;5002;-82
2021/06/20 01:35:25;;;;;;;5.85;4.10;;;;;;;26.09;48.92;100913.41;144994;597;5002;-82
2021/06/20 01:37:54;;;;;;;5.03;3.72;;;;;;;26.10;49.40;100901.84;144994;597;5002;-83
2021/06/20 01:40:23;;;;;;;5.62;4.40;;;;;;;26.18;49.24;100902.47;144994;574;5002;-83
2021/06/20 01:42:50;;;;;;;5.20;4.10;;;;;;;26.27;48.95;100896.00;144993;564;5002;-82
2021/06/20 01:45:19;;;;;;;4.53;4.12;;;;;;;26.32;48.60;100908.22;144994;618;5002;-83
2021/06/20 01:47:46;;;;;;;6.15;4.20;;;;;;;26.36;48.82;100899.22;144994;757;5002;-83
2021/06/20 01:50:16;;;;;;;5.35;4.30;;;;;;;26.42;48.63;100907.00;144994;566;5002;-83
2021/06/20 01:52:43;;;;;;;5.25;4.30;;;;;;;26.43;48.16;100906.06;144994;564;5002;-82
2021/06/20 01:55:11;;;;;;;4.62;4.22;;;;;;;26.38;48.61;100894.69;144994;586;5002;-83
2021/06/20 01:57:40;;;;;;;4.90;4.30;;;;;;;26.37;48.21;100898.28;144994;579;5002;-83
2021/06/20 02:00:15;;;;;;;5.40;4.07;;;;;;;26.31;48.65;100897.63;144994;576;5002;-83
2021/06/20 02:02:43;;;;;;;6.32;3.95;;;;;;;26.28;48.38;100887.06;144994;581;5002;-81
2021/06/20 02:05:11;;;;;;;3.65;3.35;;;;;;;26.27;48.65;100883.53;144994;678;5002;-81
2021/06/20 02:07:38;;;;;;;3.95;3.55;;;;;;;26.28;48.56;100881.75;144994;640;5002;-82
2021/06/20 02:10:11;;;;;;;3.58;3.28;;;;;;;26.26;48.20;100879.12;144994;599;5002;-82
2021/06/20 02:12:38;;;;;;;4.97;3.53;;;;;;;26.24;48.37;100894.28;144994;590;5002;-83
2021/06/20 02:15:09;;;;;;;4.00;3.22;;;;;;;26.23;48.00;100892.53;144994;570;5002;-84
2021/06/20 02:17:37;;;;;;;3.97;3.58;;;;;;;26.24;48.05;100897.81;144993;584;5002;-83
2021/06/20 02:20:07;;;;;;;4.70;3.62;;;;;;;26.23;48.23;100889.88;144994;573;5002;-82
2021/06/20 02:22:34;;;;;;;4.80;4.10;;;;;;;26.22;48.49;100899.66;144994;599;5002;-82
2021/06/20 02:25:00;;;;;;;4.97;3.97;;;;;;;26.20;48.18;100900.63;144994;621;5002;-80
2021/06/20 02:27:27;;;;;;;6.87;4.35;;;;;;;26.18;48.20;100907.78;144994;579;5002;-82
2021/06/20 02:29:55;;;;;;;5.18;4.68;;;;;;;26.12;48.83;100916.84;144994;632;5002;-81
2021/06/20 02:32:23;;;;;;;5.85;4.43;;;;;;;26.02;48.38;100916.25;144994;637;5002;-82
2021/06/20 02:34:51;;;;;;;5.75;3.80;;;;;;;25.93;49.12;100912.97;144994;592;5002;-81
2021/06/20 02:37:18;;;;;;;3.80;3.40;;;;;;;25.89;49.14;100920.19;144994;592;5002;-81
2021/06/20 02:39:45;;;;;;;4.12;3.72;;;;;;;25.69;49.03;100927.00;144994;668;5002;-82
2021/06/20 02:42:13;;;;;;;3.67;3.37;;;;;;;25.67;48.92;100928.81;144994;591;5002;-81
2021/06/20 02:44:40;;;;;;;5.80;3.80;;;;;;;25.68;49.23;100927.03;144994;565;5002;-80
2021/06/20 02:47:08;;;;;;;4.62;3.60;;;;;;;25.58;49.48;100930.88;144994;574;5002;-80
2021/06/20 02:49:36;;;;;;;4.40;4.00;;;;;;;25.50;49.76;100931.97;144994;571;5002;-80
2021/06/20 02:52:03;;;;;;;5.03;4.53;;;;;;;25.45;49.61;100935.66;144994;588;5002;-81
2021/06/20 02:54:31;;;;;;;5.22;4.22;;;;;;;25.51;50.11;100939.00;144994;643;5002;-82
2021/06/20 02:56:59;;;;;;;5.78;4.62;;;;;;;25.60;49.65;100937.88;144994;575;5002;-81
2021/06/20 02:59:26;;;;;;;4.72;4.12;;;;;;;25.66;49.69;100927.06;144994;581;5002;-83
2021/06/20 03:01:53;;;;;;;6.57;4.60;;;;;;;25.69;49.18;100918.13;144994;573;5002;-82
2021/06/20 03:04:20;;;;;;;5.12;4.62;;;;;;;25.73;49.79;100932.22;144994;610;5002;-81
2021/06/20 03:06:46;;;;;;;4.70;4.30;;;;;;;25.74;49.14;100920.66;144994;588;5002;-82
2021/06/20 03:09:12;;;;;;;6.47;4.97;;;;;;;25.75;49.32;100922.41;144994;585;5002;-83
2021/06/20 03:11:42;;;;;;;7.00;4.87;;;;;;;25.71;49.82;100921.63;144994;576;5002;-82
2021/06/20 03:14:11;;;;;;;5.93;4.50;;;;;;;25.73;49.77;100932.22;144994;627;5002;-82
2021/06/20 03:16:37;;;;;;;5.15;4.65;;;;;;;25.76;49.52;100932.13;144994;592;5002;-82
2021/06/20 03:19:05;;;;;;;5.18;4.75;;;;;;;25.76;49.90;100929.47;144994;575;5002;-82
2021/06/20 03:21:31;;;;;;;4.62;4.05;;;;;;;25.74;49.57;100929.50;144994;621;5002;-82
2021/06/20 03:23:58;;;;;;;5.18;4.68;;;;;;;25.73;49.24;100927.75;144994;599;5002;-81
2021/06/20 03:26:24;;;;;;;8.82;7.03;;;;;;;25.69;49.83;100929.66;144994;589;5002;-82
2021/06/20 03:28:51;;;;;;;6.12;4.70;;;;;;;25.65;49.50;100933.31;144994;582;5002;-82
2021/06/20 03:31:18;;;;;;;6.00;4.53;;;;;;;25.58;49.61;100937.06;144994;581;5002;-83
2021/06/20 03:33:45;;;;;;;7.10;4.50;;;;;;;25.53;49.59;100931.87;144994;563;5002;-83
2021/06/20 03:36:12;;;;;;;5.87;4.40;;;;;;;25.54;49.71;100930.09;144994;569;5002;-82
2021/06/20 03:38:40;;;;;;;5.82;3.80;;;;;;;25.50;50.05;100942.59;144994;580;5002;-82
2021/06/20 03:41:08;;;;;;;4.80;3.92;;;;;;;25.44;50.20;100929.50;144994;620;5002;-82
2021/06/20 03:43:35;;;;;;;4.45;3.70;;;;;;;25.44;50.10;100934.81;144994;631;5002;-82
2021/06/20 03:46:02;;;;;;;5.47;4.18;;;;;;;25.46;50.08;100945.41;144994;598;5002;-83
2021/06/20 03:48:29;;;;;;;6.35;3.92;;;;;;;25.46;50.05;100943.59;144994;580;5002;-82
2021/06/20 03:50:55;;;;;;;4.80;4.32;;;;;;;25.48;50.08;100938.25;144994;569;5002;-80
2021/06/20 03:53:22;;;;;;;5.18;4.00;;;;;;;25.50;49.63;100936.41;144994;595;5002;-82
2021/06/20 03:55:48;;;;;;;4.85;4.40;;;;;;;25.53;50.21;100934.53;144994;576;5002;-81
2021/06/20 03:58:15;;;;;;;6.37;4.30;;;;;;;25.57;49.65;100939.78;144994;612;5002;-82
2021/06/20 04:00:41;;;;;;;6.32;4.30;;;;;;;25.57;49.64;100939.78;144993;585;5002;-82
2021/06/20 04:03:08;;;;;;;4.50;4.03;;;;;;;25.60;50.32;100947.66;144994;575;5002;-82
2021/06/20 04:05:34;;;;;;;4.22;3.92;;;;;;;25.61;50.03;100942.31;144994;585;5002;-82
2021/06/20 04:08:01;;;;;;;4.55;3.87;;;;;;;25.64;50.04;100943.97;144994;634;5002;-81
2021/06/20 04:10:28;;;;;;;5.45;4.10;;;;;;;25.63;49.97;100943.13;144994;646;5002;-81
2021/06/20 04:12:59;;;;;;;9.00;4.53;;;;;;;25.57;49.82;100948.63;144994;633;5002;-82
2021/06/20 04:15:31;;;;;;;4.45;4.05;;;;;;;25.55;50.72;100953.09;144994;595;5002;-82
2021/06/20 04:18:00;;;;;;;6.45;3.90;;;;;;;25.60;50.52;100951.19;144994;575;5002;-82
2021/06/20 04:20:27;;;;;;;5.50;3.75;;;;;;;25.74;50.10;100953.44;144994;644;5002;-82
2021/06/20 04:22:54;;;;;;;5.53;4.12;;;;;;;25.88;49.98;100961.88;144994;595;5002;-84
2021/06/20 04:25:20;;;;;;;5.87;3.80;;;;;;;25.94;49.69;100963.47;144994;591;5002;-82
2021/06/20 04:27:48;;;;;;;7.53;3.78;;;;;;;25.95;49.82;100959.91;144994;583;5002;-81
2021/06/20 04:30:20;;;;;;;5.93;3.70;;;;;;;25.96;50.00;100961.66;144994;589;5002;-82
2021/06/20 04:32:47;;;;;;;4.93;3.65;;;;;;;25.95;49.39;100962.56;144994;615;5002;-82
2021/06/20 04:35:14;;;;;;;6.93;4.20;;;;;;;25.96;49.66;100959.00;144994;621;5002;-83
2021/06/20 04:37:41;;;;;;;5.28;3.85;;;;;;;25.99;49.75;100958.03;144994;589;5002;-84
2021/06/20 04:40:12;;;;;;;6.03;4.20;;;;;;;26.00;49.43;100963.31;144994;589;5002;-81
2021/06/20 04:42:41;;;;;;;7.07;4.12;;;;;;;26.02;49.77;100964.12;144994;590;5002;-83
2021/06/20 04:45:09;;;;;;;6.93;4.20;;;;;;;26.03;49.30;100960.56;144994;586;5002;-83
2021/06/20 04:47:36;;;;;;;5.90;4.07;;;;;;;26.01;49.33;100957.09;144993;581;5002;-81
2021/06/20 04:50:03;;;;;;;8.48;4.20;;;;;;;26.01;49.83;100954.44;144994;657;5002;-81
2021/06/20 04:52:30;;;;;;;7.80;4.50;;;;;;;26.02;49.56;100963.25;144994;598;5002;-81
2021/06/20 04:54:56;;;;;;;5.55;4.22;;;;;;;26.05;49.65;100957.84;144994;596;5002;-81
2021/06/20 04:57:29;;;;;;;5.47;4.35;;;;;;;26.05;50.01;100961.38;144994;580;5002;-82
2021/06/20 05:00:03;;;;;;;9.55;4.75;;;;;;;26.02;49.38;100964.12;144994;594;5002;-81
2021/06/20 05:02:29;;;;;;;8.52;4.72;;;;;;;26.02;49.96;100964.12;144994;619;5002;-81
2021/06/20 05:04:57;;;;;;;8.45;4.68;;;;;;;26.02;49.49;100957.94;144994;572;5002;-81
2021/06/20 05:07:24;;;;;;;5.62;4.65;;;;;;;26.09;49.90;100964.84;144994;581;5002;-83
2021/06/20 05:09:50;;;;;;;8.85;5.32;;;;;;;26.15;49.53;100967.31;144994;576;5002;-81
2021/06/20 05:12:17;;;;;;;8.60;5.00;;;;;;;26.23;49.77;100954.63;144994;564;5002;-83
2021/06/20 05:14:46;;;;;;;10.20;5.68;;;;;;;26.29;49.99;100966.84;144994;592;5002;-82
2021/06/20 05:17:15;;;;;;;9.07;4.93;;;;;;;26.29;49.60;100966.84;144994;580;5002;-82
2021/06/20 05:19:42;;;;;;;10.93;5.65;;;;;;;26.34;50.07;100964.91;144994;577;5002;-83
2021/06/20 05:22:10;;;;;;;7.47;5.70;;;;;;;26.37;49.70;100971.94;144994;749;5002;-83
2021/06/20 05:24:38;;;;;;;7.07;5.75;;;;;;;26.12;50.44;100985.13;144994;565;5002;-83
2021/06/20 05:27:06;;;;;;;7.93;5.55;;;;;;;25.82;51.46;100980.66;144994;564;5002;-82
2021/06/20 05:29:32;;;;;;;6.82;6.12;;;;;;;25.94;50.91;100982.06;144993;607;5002;-82
2021/06/20 05:31:58;;;;;;;8.57;5.57;;;;;;;26.05;50.98;100987.97;144994;579;5002;-82
2021/06/20 05:34:25;;;;;;;6.28;5.47;;;;;;;25.95;51.59;100982.97;144994;606;5002;-82
2021/06/20 05:36:51;;;;;;;6.72;5.78;;;;;;;25.96;52.16;100985.59;144994;605;5002;-82
2021/06/20 05:39:18;;;;;;;7.10;5.80;;;;;;;25.99;52.18;100995.28;144994;589;5002;-82
2021/06/20 05:41:44;;;;;;;6.60;5.62;;;;;;;25.95;53.13;100993.59;144994;580;5002;-82
2021/06/20 05:44:11;;;;;;;7.10;5.45;;;;;;;25.83;53.83;100997.47;144994;575;4577;-81
2021/06/20 05:46:40;;;;;;;5.78;5.15;;;;;;;25.91;52.77;100990.16;144994;574;4579;-83
2021/06/20 05:49:07;;;;;;;7.03;4.40;;;;;;;26.00;52.24;100984.59;144994;569;4572;-82
2021/06/20 05:51:34;;;;;;;8.07;5.00;;;;;;;26.21;52.07;100987.50;144993;565;6002;-83
2021/06/20 05:54:01;;;;;;;5.47;4.40;;;;;;;26.34;51.86;100980.88;144992;591;6002;-81
2021/06/20 05:56:30;;;;;;;6.00;4.53;;;;;;;26.35;50.99;100982.63;144992;717;6002;-83
2021/06/20 05:58:57;;;;;;;7.07;4.32;;;;;;;26.40;50.78;100978.00;144992;600;6002;-83
2021/06/20 06:01:25;;;;;;;6.28;4.40;;;;;;;26.61;50.91;100978.22;144992;572;6002;-82
2021/06/20 06:03:51;;;;;;;5.70;5.18;;;;;;;26.54;50.96;100984.69;144992;912;6003;-81
2021/06/20 06:06:18;;;;;;;6.65;5.10;;;;;;;26.24;53.71;100988.28;144992;587;6002;-82
2021/06/20 06:08:45;;;;;;;9.35;5.57;;;;;;;26.42;52.91;100981.53;144992;912;6002;-81
2021/06/20 06:11:12;;;;;;;7.30;5.80;;;;;;;26.18;54.01;100984.94;144992;595;6003;-83
2021/06/20 06:13:39;;;;;;;5.80;5.20;;;;;;;26.31;52.94;100978.34;144992;594;6002;-82
2021/06/20 06:16:07;;;;;;;8.35;5.55;;;;;;;26.47;52.55;100972.50;144992;593;6002;-83
2021/06/20 06:18:34;;;;;;;6.43;5.40;;;;;;;26.24;53.53;100980.28;144992;578;6002;-84
2021/06/20 06:21:01;;;;;;;7.72;5.68;;;;;;;26.39;52.93;100970.06;144991;578;6002;-83
2021/06/20 06:23:30;;;;;;;7.68;5.62;;;;;;;26.53;52.71;100974.97;144992;757;6002;-83
2021/06/20 06:25:57;;;;;;;6.18;5.57;;;;;;;26.32;53.43;100966.75;144992;601;6002;-84
2021/06/20 06:28:23;;;;;;;6.68;5.25;;;;;;;26.29;53.10;100969.50;144992;913;6002;-82
2021/06/20 06:30:50;;;;;;;6.28;5.55;;;;;;;26.20;53.88;100983.09;144992;563;6002;-82
2021/06/20 06:33:17;;;;;;;7.80;5.22;;;;;;;26.25;54.12;100966.09;144992;563;6002;-83
2021/06/20 06:35:43;;;;;;;7.03;5.78;;;;;;;26.32;53.68;100972.06;144992;844;6002;-82
2021/06/20 06:38:10;;;;;;;7.47;5.75;;;;;;;26.08;55.14;100984.34;144992;912;6002;-82
2021/06/20 06:40:36;;;;;;;8.73;6.03;;;;;;;26.37;53.45;100986.09;144992;912;6002;-82
2021/06/20 06:43:02;;;;;;;6.65;5.82;;;;;;;26.36;53.69;100978.16;144992;913;6002;-82
2021/06/20 06:45:29;;;;;;;7.12;5.97;;;;;;;26.27;54.05;100984.66;144992;580;6002;-81
2021/06/20 06:47:55;;;;;;;8.68;6.20;;;;;;;26.36;53.70;100975.50;144992;891;6002;-82
2021/06/20 06:50:22;;;;;;;7.60;6.53;;;;;;;26.31;54.20;100967.69;144991;701;6002;-84
2021/06/20 06:52:48;;;;;;;9.73;5.78;;;;;;;26.17;56.25;100977.88;144992;835;6002;-84
2021/06/20 06:55:15;;;;;;;8.75;6.32;;;;;;;26.14;54.76;100973.53;144992;847;6002;-82
2021/06/20 06:57:42;;;;;;;7.28;6.47;;;;;;;26.06;56.45;100971.09;144992;573;6002;-82
2021/06/20 07:00:11;;;;;;;9.23;6.30;;;;;;;25.95;56.84;100973.19;144992;565;6002;-83
2021/06/20 07:02:37;;;;;;;9.10;5.97;;;;;;;25.96;55.68;100960.75;144993;598;6002;-82
2021/06/20 07:05:05;;;;;;;8.38;7.45;;;;;;;25.88;58.13;100966.31;144992;594;6002;-83
2021/06/20 07:07:34;;;;;;;8.88;7.50;;;;;;;25.89;57.37;100970.72;144992;566;6002;-84
2021/06/20 07:10:01;;;;;;;8.50;7.37;;;;;;;25.62;58.30;100956.44;144992;569;6002;-82
2021/06/20 07:12:32;;;;;;;9.13;7.32;;;;;;;25.59;60.43;100972.50;144992;589;6002;-82
2021/06/20 07:15:00;;;;;;;9.93;7.65;;;;;;;25.71;59.61;100964.16;144992;583;6002;-82
2021/06/20 07:17:28;;;;;;;10.60;7.10;;;;;;;25.66;60.07;100953.66;144992;644;6002;-83
2021/06/20 07:19:54;;;;;;;8.07;7.20;;;;;;;25.80;59.39;100957.69;144991;571;6002;-83
2021/06/20 07:22:21;;;;;;;7.75;6.95;;;;;;;25.84;58.78;100957.56;144992;564;6002;-83
2021/06/20 07:24:48;;;;;;;8.10;7.22;;;;;;;25.67;59.83;100954.53;144992;570;6002;-83
2021/06/20 07:27:14;;;;;;;8.65;6.90;;;;;;;25.67;58.68;100952.72;144992;564;6002;-82
2021/06/20 07:29:42;;;;;;;8.32;6.40;;;;;;;25.65;58.96;100956.38;144992;572;6002;-82
2021/06/20 07:32:09;;;;;;;9.35;6.85;;;;;;;25.67;60.52;100958.03;144992;573;6002;-81
2021/06/20 07:34:36;;;;;;;9.13;7.05;;;;;;;25.70;60.61;100957.09;144992;773;6002;-83
2021/06/20 07:37:02;;;;;;;12.75;7.05;;;;;;;25.68;60.03;100950.97;144992;578;6002;-82
2021/06/20 07:39:30;;;;;;;10.05;7.20;;;;;;;25.64;60.68;100947.53;144992;593;6002;-82
2021/06/20 07:41:57;;;;;;;9.32;6.68;;;;;;;25.62;60.59;100946.69;144992;624;6002;-83
2021/06/20 07:44:23;;;;;;;8.50;6.97;;;;;;;25.69;61.64;100944.72;144992;610;6002;-82
2021/06/20 07:46:50;;;;;;;10.98;6.87;;;;;;;25.74;60.69;100941.91;144992;569;6002;-83
2021/06/20 07:49:18;;;;;;;7.53;6.60;;;;;;;25.75;60.75;100941.87;144992;690;6002;-83
2021/06/20 07:51:48;;;;;;;7.62;6.30;;;;;;;25.71;61.22;100932.25;144992;719;6002;-81
2021/06/20 07:54:15;;;;;;;10.73;6.55;;;;;;;25.77;60.95;100934.75;144992;564;6002;-81
2021/06/20 07:56:49;;;;;;;7.18;6.50;;;;;;;25.92;60.34;100945.81;144992;679;6002;-82
2021/06/20 07:59:15;;;;;;;8.25;6.80;;;;;;;26.00;60.51;100946.50;144992;593;6002;-80
2021/06/20 08:01:42;;;;;;;9.32;7.12;;;;;;;26.10;60.70;100944.41;144992;867;6002;-82
2021/06/20 08:04:09;;;;;;;8.50;7.28;;;;;;;26.15;60.30;100937.16;144992;912;6002;-81
2021/06/20 08:06:36;;;;;;;11.15;7.20;;;;;;;26.02;61.86;100931.34;144992;566;6002;-81
2021/06/20 08:09:03;;;;;;;10.25;6.85;;;;;;;26.01;60.82;100932.25;144992;591;6002;-81
2021/06/20 08:11:32;;;;;;;8.43;6.57;;;;;;;26.06;60.32;100948.97;144992;578;6002;-84
2021/06/20 08:14:00;;;;;;;8.25;6.60;;;;;;;26.10;60.39;100937.28;144992;569;6002;-82
2021/06/20 08:16:26;;;;;;;9.27;6.80;;;;;;;26.08;59.80;100943.59;144992;571;6002;-83
2021/06/20 08:18:53;;;;;;;7.18;6.30;;;;;;;26.00;59.11;100939.38;144992;605;6002;-82
2021/06/20 08:21:19;;;;;;;6.80;6.07;;;;;;;26.00;56.94;100946.50;144992;661;6002;-83
2021/06/20 08:23:46;;;;;;;8.07;6.62;;;;;;;26.21;57.89;100939.63;144992;584;6002;-83
2021/06/20 08:26:12;;;;;;;8.05;6.07;;;;;;;26.17;56.81;100933.53;144992;602;6002;-82
2021/06/20 08:28:39;;;;;;;7.78;6.12;;;;;;;26.32;56.17;100931.28;144992;577;6002;-82
2021/06/20 08:31:05;;;;;;;7.50;6.10;;;;;;;26.31;56.82;100922.44;144992;624;6002;-82
2021/06/20 08:33:32;;;;;;;7.18;6.43;;;;;;;26.41;57.57;100918.56;144992;576;6002;-83
2021/06/20 08:36:01;;;;;;;8.15;6.12;;;;;;;26.52;57.01;100914.66;144992;735;6002;-83
2021/06/20 08:38:28;;;;;;;7.57;6.40;;;;;;;26.61;56.53;100920.56;144992;771;6002;-83
2021/06/20 08:40:55;;;;;;;10.93;5.65;;;;;;;26.75;56.07;100912.09;144992;588;6002;-83
2021/06/20 08:43:23;;;;;;;8.13;5.80;;;;;;;26.70;55.04;100911.41;144992;569;6002;-83
2021/06/20 08:45:54;;;;;;;10.57;6.90;;;;;;;26.66;55.75;100907.13;144992;597;6002;-82
2021/06/20 08:48:21;;;;;;;9.32;6.30;;;;;;;26.91;55.57;100906.25;144992;631;6002;-82
2021/06/20 08:50:50;;;;;;;10.05;7.20;;;;;;;26.65;59.13;100915.16;144992;912;6002;-83
2021/06/20 08:53:20;;;;;;;7.45;6.28;;;;;;;26.65;58.10;100924.00;144992;869;6002;-82
2021/06/20 08:55:49;;;;;;;8.00;5.68;;;;;;;26.56;58.62;100911.84;144992;681;6002;-83
2021/06/20 08:58:31;;;;;;;7.18;5.75;;;;;;;26.69;57.46;100914.97;144992;564;6002;-84
2021/06/20 09:01:00;;;;;;;6.93;5.45;;;;;;;26.79;54.53;100908.44;144992;758;6002;-82
2021/06/20 09:03:40;;;;;;;7.03;5.43;;;;;;;26.69;54.12;100912.31;144992;835;6002;-83
2021/06/20 09:06:20;;;;;;;6.05;5.45;;;;;;;26.90;55.41;100924.03;144992;913;6002;-82
2021/06/20 09:08:53;;;;;;;5.75;5.10;;;;;;;26.92;54.53;100926.66;144992;568;6002;-84
2021/06/20 09:11:42;;;;;;;5.75;5.03;;;;;;;26.94;53.46;100924.78;144992;584;6002;-84
2021/06/20 09:14:14;;;;;;;5.32;4.82;;;;;;;26.82;53.39;100918.13;144992;593;6002;-82
2021/06/20 09:17:02;;;;;;;7.00;4.55;;;;;;;27.08;52.49;100911.00;144992;582;6002;-83
2021/06/20 09:19:34;;;;;;;5.22;4.57;;;;;;;27.28;52.04;100904.91;144992;913;6002;-82
2021/06/20 09:22:05;;;;;;;9.60;5.07;;;;;;;27.30;51.80;100919.97;144992;628;6002;-84
2021/06/20 09:24:32;;;;;;;6.37;5.78;;;;;;;27.43;51.28;100919.50;144992;569;6002;-83
2021/06/20 09:27:00;;;;;;;7.10;5.90;;;;;;;27.60;50.59;100916.19;144992;657;6002;-82
2021/06/20 09:29:35;;;;;;;6.55;5.18;;;;;;;27.57;50.48;100918.97;144992;565;6002;-83
2021/06/20 09:32:07;;;;;;;5.62;4.85;;;;;;;27.56;49.85;100915.44;144992;877;6002;-82
2021/06/20 09:35:03;;;;;;;5.53;4.72;;;;;;;27.56;48.14;100914.59;144992;912;6002;-84
2021/06/20 09:37:31;;;;;;;6.50;4.62;;;;;;;27.79;49.48;100911.91;144992;598;6004;-86
2021/06/20 09:39:57;;;;;;;5.22;4.78;;;;;;;27.93;48.64;100907.81;144992;842;6004;-82
2021/06/20 09:42:24;;;;;;;5.87;4.90;;;;;;;27.88;48.61;100905.31;144992;566;6004;-83
2021/06/20 09:44:53;;;;;;;6.87;5.40;;;;;;;27.85;47.04;100902.78;144992;567;6004;-83
2021/06/20 09:47:22;;;;;;;5.80;5.15;;;;;;;28.07;48.09;100905.50;144992;588;6005;-82
2021/06/20 09:49:53;;;;;;;8.80;5.62;;;;;;;28.15;47.59;100895.38;144992;567;6004;-82
2021/06/20 09:52:31;;;;;;;6.85;6.15;;;;;;;28.16;47.61;100890.94;144992;641;6004;-82
2021/06/20 09:55:00;;;;;;;6.75;5.43;;;;;;;28.22;47.43;100899.53;144992;581;6005;-82
2021/06/20 09:57:27;;;;;;;6.97;5.50;;;;;;;28.27;48.05;100891.34;144992;587;6004;-83
2021/06/20 10:00:05;;;;;;;7.53;5.72;;;;;;;28.33;48.80;100891.09;144992;743;6004;-82
2021/06/20 10:02:39;;;;;;;9.50;6.62;;;;;;;28.36;48.24;100890.06;144992;608;6005;-82
2021/06/20 10:05:07;;;;;;;9.35;5.72;;;;;;;28.40;47.94;100897.03;144992;566;6004;-83
2021/06/20 10:07:34;;;;;;;6.07;5.55;;;;;;;28.39;47.61;100895.28;144992;579;6004;-81
2021/06/20 10:10:05;;;;;;;6.05;5.45;;;;;;;28.36;47.69;100888.31;144992;562;6005;-82
2021/06/20 10:12:31;;;;;;;9.65;5.18;;;;;;;28.29;47.68;100896.62;144992;577;6004;-82
2021/06/20 10:15:00;;;;;;;7.72;5.00;;;;;;;28.28;47.41;100886.88;144992;565;6004;-83
2021/06/20 10:17:59;;;;;;;7.53;5.00;;;;;;;28.32;47.01;100883.16;144992;603;6004;-83
2021/06/20 10:20:33;;;;;;;5.85;5.35;;;;;;;28.25;47.22;100881.66;144992;570;6002;-82
2021/06/20 10:22:59;;;;;;;5.43;4.93;;;;;;;28.23;47.03;100874.56;144992;604;6002;-82
2021/06/20 10:25:31;;;;;;;7.00;5.03;;;;;;;28.29;46.20;100883.28;144991;636;6002;-82
2021/06/20 10:28:13;;;;;;;5.80;5.20;;;;;;;28.39;46.47;100881.94;144992;617;6002;-83
2021/06/20 10:30:44;;;;;;;6.87;5.18;;;;;;;28.42;46.79;100881.81;144992;590;6002;-82
2021/06/20 10:33:21;;;;;;;11.65;5.03;;;;;;;28.41;47.34;100869.38;144992;584;6002;-81
2021/06/20 10:35:59;;;;;;;7.93;5.20;;;;;;;28.40;47.76;100867.69;144992;578;6002;-83
2021/06/20 10:38:52;;;;;;;6.40;5.70;;;;;;;28.47;48.33;100861.13;144992;663;6002;-86
2021/06/20 10:41:24;;;;;;;5.45;4.95;;;;;;;28.68;48.34;100872.72;144992;585;6004;-83
2021/06/20 10:43:57;;;;;;;9.32;6.53;;;;;;;28.65;48.91;100869.31;144992;600;6004;-90
2021/06/20 10:46:27;;;;;;;6.90;5.93;;;;;;;28.76;49.63;100872.38;144992;590;6005;-81
2021/06/20 10:48:53;;;;;;;7.47;6.60;;;;;;;28.71;49.71;100874.37;144992;576;6004;-82
2021/06/20 10:51:25;;;;;;;7.07;5.85;;;;;;;28.80;49.96;100874.00;144992;630;6004;-83
2021/06/20 10:53:54;;;;;;;7.97;5.97;;;;;;;28.83;51.06;100868.50;144992;625;6005;-81
2021/06/20 10:56:22;;;;;;;6.22;5.62;;;;;;;28.88;50.90;100865.62;144992;621;6004;-82
2021/06/20 10:58:52;;;;;;;8.52;6.30;;;;;;;28.82;51.91;100850.72;144992;601;6004;-82
2021/06/20 11:01:21;;;;;;;7.03;6.32;;;;;;;28.73;53.65;100857.37;144992;581;6005;-81
2021/06/20 11:04:13;;;;;;;6.43;5.60;;;;;;;28.68;53.03;100858.50;144992;628;6004;-81
2021/06/20 11:06:50;;;;;;;8.40;7.70;;;;;;;28.68;54.16;100861.16;144992;579;6002;-82
2021/06/20 11:09:22;;;;;;;7.72;6.70;;;;;;;28.68;54.42;100855.81;144992;592;6003;-83
2021/06/20 11:11:51;;;;;;;6.78;6.12;;;;;;;28.98;53.93;100847.37;144992;585;6002;-82
2021/06/20 11:14:19;;;;;;;6.57;5.97;;;;;;;28.98;54.31;100845.56;144992;585;6002;-83
2021/06/20 11:16:51;;;;;;;9.00;6.80;;;;;;;28.91;55.00;100844.97;144992;574;6011;-84
2021/06/20 11:19:28;;;;;;;8.45;7.03;;;;;;;29.00;55.69;100834.81;144992;591;6002;-83
2021/06/20 11:22:07;;;;;;;6.97;6.22;;;;;;;29.07;56.76;100830.94;144992;563;6002;-83
2021/06/20 11:24:46;;;;;;;7.87;7.07;;;;;;;29.02;55.09;100833.81;144992;742;6002;-83
2021/06/20 11:27:16;;;;;;;7.57;6.10;;;;;;;29.11;54.56;100829.84;144992;571;6002;-84
2021/06/20 11:30:16;;;;;;;8.45;6.15;;;;;;;29.10;54.70;100828.12;144992;571;6002;-84
2021/06/20 11:32:43;;;;;;;8.18;5.82;;;;;;;29.15;54.13;100819.91;144992;571;6004;-84
2021/06/20 11:35:16;;;;;;;6.80;6.10;;;;;;;29.09;54.54;100821.03;144992;571;6004;-83
2021/06/20 11:37:45;;;;;;;6.68;5.97;;;;;;;29.11;54.00;100813.81;144992;568;6004;-82
2021/06/20 11:40:17;;;;;;;6.85;6.12;;;;;;;29.24;53.54;100811.47;144992;578;6004;-83
2021/06/20 11:42:47;;;;;;;7.20;6.53;;;;;;;29.19;53.78;100816.16;144992;664;6004;-84